Capitol Logistics 229


KSEA
Seattle-Tacoma International Airport
Seattle, Washington, US
PANC
Ted Stevens Anchorage International Airport
Anchorage, Alaska, US

Route Details

Aircraft Information
Primary: Boeing 767-300BDSF
Backup: Not Available
Route Data
Distance: 1257nm
Sched. Duration: 3h 45m
Avg. Duration: 3h 22m (-23m)
Times Flown: 7
Recm'd Route: BANGR9 ARRIE FOCHE PRYCE BKA LAIRE JOH WITTI4
Planned Altitude: 34,000ft
Origin Wx: KSEA 270953Z 16003KT 10SM BKN085 06/03 A3049 RMK AO2 SLP331 T00610028
Dest. Wx: PANC 270953Z 00000KT 10SM CLR M11/M12 A2953 RMK AO2 SLP003 I1000 T11061122
Notes:

Financial History
Total Freight: 824,298lbs
Average Load: 117,757lbs/flt
Fuel Used: 333,041lbs
Avg. Fuel Used: 47,577lbs/flt
Fuel Expense: $373,006
Avg. Fuel Expense: $53,287
Avg. Fuel Cost: $1.12/lbs
Total Gross Income: $1,047,888
Pilot Pay: $1,203
Total Expenses: $113,536
Total Revenue: $557,151
Average Revenue: $149,698.25